»·PEaware :: N441PW CYEV-PASC

N441PW :: CYEV-PASC

FLIGHT INFORMATION

Flight Status: Arrived
Operator: Privately registered:
United States
More flights under this callsign
Pilot: Stacy K. (11621)
Aircraft: CESSNA 404 TITAN
(C404)
More flights by this aircraft type
Origin: CYEV Zubko
Canada
Destination: PASC Deadhorse
United States
More flights between these airports :: More routes between these airports
Route: TOC GLM
File this flight plan on PilotEdge
Remarks:
Altitude:
(Current/Filed)
4,500ft
Speed:
(Current/Filed)
190kts
Departed: 01-Jul-19 11:46 AM
Arrived: 01-Jul-19 02:00 PM
Distance/Time
Traveled:
2214nm/2:14
Distance/Time
To Go:
Arrived

Flight Plot

Page will automatically refresh every two minutes.

Flight plan parsing failed; only flown route is shown


Map Options




Map Legend


Flown Route
Filed Route
Departure Airport
Arrival Airport
Navaid (VOR, NDB)
Fix

Horizontal Profiles

Position Reports

Time Latitude Longitude Heading Altitude Ground
Speed
01-Jul-19 11:40 68.308408 -133.477643 239 228ft 0kts
01-Jul-19 11:41 68.308408 -133.477643 239 228ft 0kts
01-Jul-19 11:42 68.307919 -133.477989 190 228ft 11kts
01-Jul-19 11:43 68.305413 -133.490451 271 228ft 17kts
01-Jul-19 11:44 68.303741 -133.497917 168 228ft 17kts
01-Jul-19 11:45 68.306065 -133.439795 79 985ft 113kts
01-Jul-19 11:46 68.334969 -133.402702 304 1896ft 170kts
01-Jul-19 11:47 68.316311 -133.488696 211 2754ft 148kts
01-Jul-19 11:48 68.294644 -133.585757 247 3561ft 158kts
01-Jul-19 11:49 68.283530 -133.701413 252 4355ft 161kts
01-Jul-19 11:50 68.271474 -133.826538 253 4494ft 181kts
01-Jul-19 11:51 68.259144 -133.959321 252 4689ft 172kts
01-Jul-19 11:52 68.247241 -134.080228 254 5357ft 164kts
01-Jul-19 11:53 68.235798 -134.198393 256 6029ft 161kts
01-Jul-19 11:54 68.224384 -134.314540 256 6700ft 159kts
01-Jul-19 11:55 68.213082 -134.429131 256 7374ft 157kts
01-Jul-19 11:56 68.201783 -134.542248 256 8043ft 155kts
01-Jul-19 11:57 68.190660 -134.653630 256 8714ft 153kts
01-Jul-19 11:58 68.179195 -134.767364 256 9400ft 161kts
01-Jul-19 11:59 68.167190 -134.885078 256 10079ft 165kts
01-Jul-19 12:00 68.154872 -135.005161 255 10618ft 172kts
01-Jul-19 12:01 68.141516 -135.134277 255 10743ft 178kts
01-Jul-19 12:02 68.128503 -135.258755 255 11343ft 170kts
01-Jul-19 12:03 68.115773 -135.379398 254 11931ft 168kts
01-Jul-19 12:04 68.102676 -135.502638 254 12354ft 168kts
01-Jul-19 12:05 68.089426 -135.626364 254 12501ft 179kts
01-Jul-19 12:07 68.073115 -135.777705 254 12500ft 181kts
01-Jul-19 12:07 68.061320 -135.885983 253 12499ft 181kts
01-Jul-19 12:08 68.047138 -136.015192 253 12499ft 181kts
01-Jul-19 12:09 68.032809 -136.144883 253 12497ft 181kts
01-Jul-19 12:10 68.018358 -136.274084 253 12495ft 182kts
01-Jul-19 12:11 68.003788 -136.403461 253 12498ft 182kts
01-Jul-19 12:12 67.989175 -136.532683 253 12491ft 181kts
01-Jul-19 12:13 67.974474 -136.661283 253 12489ft 181kts
01-Jul-19 12:14 67.959707 -136.789269 253 12487ft 180kts
01-Jul-19 12:15 67.944835 -136.917263 252 12482ft 180kts
01-Jul-19 12:16 67.929972 -137.043999 252 12481ft 179kts
01-Jul-19 12:17 67.915044 -137.170531 252 12477ft 178kts
01-Jul-19 12:18 67.900160 -137.296030 251 12476ft 178kts
01-Jul-19 12:19 67.885096 -137.421265 251 12475ft 177kts
01-Jul-19 12:20 67.870028 -137.545991 251 12470ft 178kts
01-Jul-19 12:21 67.854851 -137.670474 251 12471ft 177kts
01-Jul-19 12:22 67.839740 -137.794537 250 12466ft 176kts
01-Jul-19 12:23 67.824469 -137.917481 250 12462ft 175kts
01-Jul-19 12:24 67.809229 -138.039924 250 12461ft 175kts
01-Jul-19 12:25 67.793879 -138.162202 250 12455ft 175kts
01-Jul-19 12:26 67.778122 -138.286563 251 12112ft 187kts
01-Jul-19 12:27 67.761032 -138.419534 250 11445ft 193kts
01-Jul-19 12:28 67.743867 -138.554174 251 10783ft 194kts
01-Jul-19 12:29 67.726866 -138.686802 252 10491ft 184kts
01-Jul-19 12:30 67.709660 -138.817608 251 9906ft 194kts
01-Jul-19 12:31 67.691796 -138.952747 251 9220ft 197kts
01-Jul-19 12:32 67.674050 -139.088326 251 8571ft 195kts
01-Jul-19 12:33 67.656516 -139.219393 252 8282ft 185kts
01-Jul-19 12:34 67.639896 -139.346707 251 7994ft 184kts
01-Jul-19 12:35 67.622519 -139.472754 250 7695ft 182kts
01-Jul-19 12:36 67.604468 -139.600356 252 7040ft 188kts
01-Jul-19 12:37 67.587524 -139.728309 251 6498ft 179kts
01-Jul-19 12:38 67.573286 -139.848081 269 6489ft 170kts
01-Jul-19 12:39 67.586262 -139.962751 284 7041ft 158kts
01-Jul-19 12:40 67.599943 -140.071601 283 7707ft 157kts
01-Jul-19 12:41 67.613624 -140.181845 285 8391ft 160kts
01-Jul-19 12:42 67.627602 -140.292360 284 9077ft 159kts
01-Jul-19 12:43 67.641332 -140.403051 284 9752ft 160kts
01-Jul-19 12:44 67.668826 -140.496561 313 10405ft 169kts
01-Jul-19 12:45 67.706041 -140.584110 312 10494ft 186kts
01-Jul-19 12:46 67.743819 -140.679993 311 10500ft 190kts
01-Jul-19 12:47 67.782124 -140.777139 311 10502ft 191kts
01-Jul-19 12:48 67.820430 -140.873739 309 10502ft 190kts
01-Jul-19 12:49 67.857963 -140.972205 309 10510ft 190kts
01-Jul-19 12:50 67.896453 -141.069273 310 10498ft 191kts
01-Jul-19 12:51 67.934609 -141.167464 310 10505ft 191kts
01-Jul-19 12:52 67.972377 -141.266355 309 10502ft 190kts
01-Jul-19 12:53 68.010472 -141.364608 308 10517ft 191kts
01-Jul-19 12:54 68.048021 -141.465626 310 10516ft 192kts
01-Jul-19 12:55 68.086023 -141.565656 309 10509ft 191kts
01-Jul-19 12:56 68.123847 -141.666178 309 10513ft 190kts
01-Jul-19 12:57 68.161195 -141.766536 307 10511ft 190kts
01-Jul-19 12:58 68.199073 -141.866949 310 10489ft 190kts
01-Jul-19 12:59 68.236307 -141.968362 309 10486ft 190kts
01-Jul-19 13:00 68.273772 -142.068702 308 10495ft 191kts
01-Jul-19 13:01 68.311392 -142.170646 309 10487ft 191kts
01-Jul-19 13:02 68.348683 -142.273287 310 10492ft 191kts
01-Jul-19 13:03 68.386154 -142.375953 310 10485ft 191kts
01-Jul-19 13:04 68.423575 -142.478819 309 10487ft 191kts
01-Jul-19 13:05 68.460783 -142.581969 308 10485ft 191kts
01-Jul-19 13:06 68.497969 -142.685838 309 10486ft 192kts
01-Jul-19 13:07 68.535279 -142.790547 309 10486ft 192kts
01-Jul-19 13:08 68.572466 -142.895406 308 10485ft 192kts
01-Jul-19 13:09 68.609650 -143.001004 308 10485ft 192kts
01-Jul-19 13:10 68.646875 -143.106558 308 10488ft 192kts
01-Jul-19 13:11 68.683889 -143.212649 308 10486ft 192kts
01-Jul-19 13:13 68.721019 -143.319174 308 10488ft 193kts
01-Jul-19 13:14 68.758094 -143.426256 309 10488ft 193kts
01-Jul-19 13:15 68.795090 -143.533850 308 10488ft 193kts
01-Jul-19 13:16 68.832014 -143.641478 307 10494ft 193kts
01-Jul-19 13:17 68.869231 -143.750260 308 10494ft 195kts
01-Jul-19 13:18 68.906446 -143.860072 307 10494ft 194kts
01-Jul-19 13:19 68.943175 -143.970239 307 10496ft 194kts
01-Jul-19 13:20 68.980312 -144.079918 307 10504ft 195kts
01-Jul-19 13:21 69.017180 -144.190849 307 10504ft 195kts
01-Jul-19 13:22 69.054140 -144.302320 308 10511ft 195kts
01-Jul-19 13:23 69.090938 -144.413669 308 10511ft 195kts
01-Jul-19 13:24 69.127771 -144.526045 307 10511ft 195kts
01-Jul-19 13:25 69.164582 -144.638559 308 10515ft 196kts
01-Jul-19 13:26 69.201090 -144.752504 308 10508ft 196kts
01-Jul-19 13:27 69.238181 -144.865532 307 10531ft 195kts
01-Jul-19 13:28 69.274836 -144.980020 307 10514ft 196kts
01-Jul-19 13:29 69.311639 -145.094470 307 10518ft 197kts
01-Jul-19 13:30 69.348550 -145.208842 306 10530ft 197kts
01-Jul-19 13:31 69.384654 -145.325174 307 10534ft 196kts
01-Jul-19 13:32 69.420966 -145.440960 307 10533ft 197kts
01-Jul-19 13:33 69.457359 -145.558854 306 10530ft 198kts
01-Jul-19 13:34 69.494358 -145.675504 307 10544ft 198kts
01-Jul-19 13:34 69.524664 -145.774057 306 10541ft 198kts
01-Jul-19 13:36 69.567921 -145.915082 306 10045ft 210kts
01-Jul-19 13:37 69.606394 -146.042590 307 9354ft 211kts
01-Jul-19 13:37 69.638456 -146.147026 306 8787ft 208kts
01-Jul-19 13:39 69.682696 -146.293038 306 7982ft 206kts
01-Jul-19 13:39 69.714293 -146.398377 307 7163ft 209kts
01-Jul-19 13:40 69.752082 -146.524901 307 6160ft 206kts
01-Jul-19 13:42 69.795184 -146.670032 308 4999ft 202kts
01-Jul-19 13:42 69.825344 -146.772164 307 4286ft 195kts
01-Jul-19 13:43 69.859062 -146.886894 307 4193ft 182kts
01-Jul-19 13:44 69.891601 -146.998604 308 4182ft 181kts
01-Jul-19 13:45 69.924244 -147.111079 307 4183ft 182kts
01-Jul-19 13:46 69.956959 -147.224642 307 4185ft 182kts
01-Jul-19 13:47 69.990477 -147.341297 307 3754ft 194kts
01-Jul-19 13:48 70.024313 -147.459665 307 3483ft 184kts
01-Jul-19 13:49 70.057516 -147.576405 306 3187ft 187kts
01-Jul-19 13:50 70.090470 -147.693045 306 2921ft 193kts
01-Jul-19 13:51 70.130753 -147.799613 340 2063ft 201kts
01-Jul-19 13:52 70.182956 -147.838764 342 1989ft 189kts
01-Jul-19 13:53 70.231344 -147.889995 310 1990ft 181kts
01-Jul-19 13:54 70.233838 -148.027426 255 1992ft 176kts
01-Jul-19 13:55 70.221653 -148.166593 255 1985ft 160kts
01-Jul-19 13:56 70.210807 -148.287493 255 1210ft 144kts
01-Jul-19 13:57 70.201670 -148.389495 254 396ft 106kts
01-Jul-19 13:58 70.195181 -148.461101 244 66ft 54kts
01-Jul-19 13:59 70.196487 -148.464181 344 65ft 13kts
01-Jul-19 14:00 70.198159 -148.463213 255 65ft 0kts
01-Jul-19 14:01 70.198159 -148.463213 255 65ft 0kts
01-Jul-19 14:05 42.210205 -83.336972 129 650ft 0kts
01-Jul-19 14:06 42.210205 -83.336972 129 650ft 0kts
01-Jul-19 14:07 42.210205 -83.336972 129 650ft 0kts
01-Jul-19 14:08 42.210205 -83.336972 129 650ft 0kts
01-Jul-19 14:09 42.210205 -83.336972 129 650ft 0kts
01-Jul-19 14:10 42.210205 -83.336972 129 650ft 0kts
01-Jul-19 14:11 42.210205 -83.336972 129 650ft 0kts
01-Jul-19 14:12 42.210205 -83.336972 129 650ft 0kts
01-Jul-19 14:13 42.210205 -83.336972 129 650ft 0kts
01-Jul-19 14:14 42.210205 -83.336972 129 650ft 0kts

Navigation Log

Ident Type
Flight plan parsing failed, navigation log unavailable